Time;durP1;ratioP1;P1;durP2;ratioP2;P2;SDS_P1;SDS_P2;PMS_P1;PMS_P2;Temp;Humidity;BMP_temperature;BMP_pressure;BME280_temperature;BME280_humidity;BME280_pressure;Samples;Min_cycle;Max_cycle;Signal;HPM_P1;HPM_P2
2023/05/30 00:02:15;;;;;;;13.47;12.20;;;;;;;18.23;100.00;-18252.72;6244113;23;20241;-61
2023/05/30 00:04:44;;;;;;;13.57;12.37;;;;;;;18.31;100.00;-18254.63;6243935;23;20246;-62
2023/05/30 00:07:12;;;;;;;14.10;12.87;;;;;;;18.20;100.00;-18252.09;6244083;23;20165;-62
2023/05/30 00:09:39;;;;;;;13.30;12.50;;;;;;;18.19;100.00;-18251.75;6244234;23;20516;-62
2023/05/30 00:12:07;;;;;;;13.37;12.47;;;;;;;18.18;100.00;-18251.63;6244009;23;20176;-63
2023/05/30 00:14:36;;;;;;;12.73;11.83;;;;;;;18.05;100.00;-18248.53;6243986;23;20163;-61
2023/05/30 00:17:05;;;;;;;14.07;12.30;;;;;;;17.92;100.00;-18245.41;6244342;23;20161;-61
2023/05/30 00:19:32;;;;;;;12.53;11.60;;;;;;;18.02;100.00;-18247.81;6243924;23;20157;-63
2023/05/30 00:22:01;;;;;;;14.67;12.13;;;;;;;17.97;100.00;-17925.06;6243952;23;20658;-62
2023/05/30 00:24:28;;;;;;;13.20;12.13;;;;;;;18.01;100.00;-17926.00;6243774;23;20212;-62
2023/05/30 00:26:55;;;;;;;13.40;12.37;;;;;;;18.01;100.00;-17925.88;6243897;23;20168;-62
2023/05/30 00:29:22;;;;;;;12.30;11.53;;;;;;;17.96;100.00;-17924.81;6243666;23;20183;-61
2023/05/30 00:31:49;;;;;;;12.20;11.40;;;;;;;18.02;100.00;-17926.22;6243786;23;20157;-63
2023/05/30 00:34:15;;;;;;;12.77;11.63;;;;;;;18.07;100.00;-17927.28;6244268;23;20647;-62
2023/05/30 00:36:43;;;;;;;12.97;12.00;;;;;;;18.11;100.00;-17928.22;6243862;23;20167;-62
2023/05/30 00:39:13;;;;;;;13.20;11.90;;;;;;;18.14;100.00;-17929.03;6244144;23;20453;-63
2023/05/30 00:41:40;;;;;;;12.83;11.63;;;;;;;18.13;100.00;-18250.31;6243746;23;20188;-62
2023/05/30 00:44:07;;;;;;;12.77;11.87;;;;;;;18.16;100.00;-18251.03;6243550;23;20200;-63
2023/05/30 00:46:34;;;;;;;12.57;11.90;;;;;;;18.20;100.00;-18252.00;6244157;23;20547;-62
2023/05/30 00:49:02;;;;;;;13.13;12.07;;;;;;;18.19;100.00;-18251.88;6243947;23;20180;-61
2023/05/30 00:51:31;;;;;;;12.63;11.73;;;;;;;18.16;100.00;-18251.16;6244168;23;20157;-62
2023/05/30 00:54:00;;;;;;;13.27;12.20;;;;;;;18.20;100.00;-18252.00;6244163;23;20240;-63
2023/05/30 00:56:28;;;;;;;13.30;12.30;;;;;;;18.01;100.00;-18249.31;6243681;23;20191;-62
2023/05/30 00:58:56;;;;;;;12.83;11.93;;;;;;;18.19;100.00;-18253.63;6244202;23;20479;-62
2023/05/30 01:01:23;;;;;;;12.87;11.87;;;;;;;18.21;100.00;-18254.13;6243664;23;20157;-62
2023/05/30 01:03:51;;;;;;;13.60;12.40;;;;;;;18.20;100.00;-18253.88;6244145;23;20535;-63
2023/05/30 01:06:20;;;;;;;12.37;11.63;;;;;;;18.21;100.00;-18254.22;6244176;23;20465;-62
2023/05/30 01:08:47;;;;;;;13.00;11.67;;;;;;;18.18;100.00;-18253.50;6243893;23;20631;-62
2023/05/30 01:11:26;;;;;;;12.33;11.60;;;;;;;18.19;100.00;-18253.63;6243648;23;20161;-62
2023/05/30 01:14:10;;;;;;;13.30;11.90;;;;;;;17.89;100.00;-18246.47;6244140;23;20500;-62
2023/05/30 01:16:43;;;;;;;12.37;11.33;;;;;;;18.14;100.00;-18252.44;6244010;23;20596;-62
2023/05/30 01:19:28;;;;;;;12.40;11.47;;;;;;;18.09;100.00;-18251.38;6244010;23;20152;-64
2023/05/30 01:22:10;;;;;;;12.43;11.30;;;;;;;17.87;100.00;-18245.97;6243710;23;20235;-61
2023/05/30 01:24:46;;;;;;;12.80;11.90;;;;;;;17.80;100.00;-18244.44;6243513;23;20160;-62
2023/05/30 01:27:26;;;;;;;12.73;11.70;;;;;;;17.60;100.00;-18239.75;6243635;23;20164;-62
2023/05/30 01:29:56;;;;;;;12.10;11.37;;;;;;;17.59;100.00;-18239.41;6243184;23;20227;-62
2023/05/30 01:32:23;;;;;;;12.87;11.63;;;;;;;17.63;100.00;-18238.59;6243939;23;20654;-61
2023/05/30 01:34:50;;;;;;;12.80;11.83;;;;;;;17.63;100.00;-18238.47;6244627;23;20157;-63
2023/05/30 01:37:17;;;;;;;13.73;12.47;;;;;;;17.68;100.00;-18239.78;6245769;23;20596;-63
2023/05/30 01:39:44;;;;;;;14.03;13.03;;;;;;;17.66;100.00;-18239.31;6245372;23;20153;-61
2023/05/30 01:42:17;;;;;;;13.00;12.00;;;;;;;17.62;100.00;-18238.34;6245218;23;20283;-61
2023/05/30 01:44:56;;;;;;;13.30;12.47;;;;;;;17.59;100.00;-18237.50;6245997;23;20533;-62
2023/05/30 01:47:29;;;;;;;16.90;12.60;;;;;;;17.63;100.00;-18238.59;6245334;23;20157;-62
2023/05/30 01:50:00;;;;;;;12.90;12.00;;;;;;;17.68;100.00;-18239.66;6245191;23;20218;-62
2023/05/30 01:52:32;;;;;;;13.90;12.60;;;;;;;17.53;100.00;-17914.88;6245443;23;20161;-61
2023/05/30 01:55:03;;;;;;;13.43;12.37;;;;;;;17.55;100.00;-17915.34;6245478;23;20157;-62
2023/05/30 01:57:31;;;;;;;13.47;12.53;;;;;;;17.57;100.00;-18237.16;6245585;23;20245;-62
2023/05/30 01:59:59;;;;;;;14.00;13.10;;;;;;;17.56;100.00;-18236.91;6246196;23;20175;-62
2023/05/30 02:02:28;;;;;;;13.87;12.83;;;;;;;17.49;100.00;-18235.25;6245220;23;20165;-62
2023/05/30 02:04:55;;;;;;;20.13;13.77;;;;;;;17.59;100.00;-18237.50;6245159;23;20211;-61
2023/05/30 02:07:22;;;;;;;14.33;13.17;;;;;;;17.67;100.00;-18239.56;6245213;23;20164;-62
2023/05/30 02:09:49;;;;;;;13.50;12.60;;;;;;;17.56;100.00;-17915.56;6245369;23;20504;-62
2023/05/30 02:12:15;;;;;;;13.77;12.67;;;;;;;17.53;100.00;-18236.19;6245146;23;20164;-62
2023/05/30 02:14:43;;;;;;;14.73;13.57;;;;;;;17.48;100.00;-18235.00;6245311;23;20596;-62
2023/05/30 02:17:10;;;;;;;13.97;13.07;;;;;;;17.44;100.00;-18234.03;6245026;23;20164;-62
2023/05/30 02:19:38;;;;;;;13.90;12.87;;;;;;;17.46;100.00;-18234.53;6244976;23;20623;-61
2023/05/30 02:22:06;;;;;;;14.83;13.77;;;;;;;17.47;100.00;-18234.75;6245239;23;20180;-61
2023/05/30 02:24:34;;;;;;;16.10;14.80;;;;;;;17.47;100.00;-18234.75;6244966;23;20235;-62
2023/05/30 02:27:01;;;;;;;14.67;13.67;;;;;;;17.32;100.00;-18231.16;6244971;23;20215;-62
2023/05/30 02:29:28;;;;;;;15.93;14.77;;;;;;;17.46;100.00;-18234.41;6244797;23;20264;-61
2023/05/30 02:31:54;;;;;;;14.90;14.03;;;;;;;17.51;100.00;-18235.72;6244946;23;20165;-62
2023/05/30 02:34:21;;;;;;;16.50;15.13;;;;;;;17.54;100.00;-18236.44;6245128;23;20496;-61
2023/05/30 02:36:50;;;;;;;15.90;14.53;;;;;;;17.53;100.00;-18236.06;6244725;23;20157;-62
2023/05/30 02:39:17;;;;;;;15.43;14.17;;;;;;;17.49;100.00;-18235.25;6245241;23;20560;-62
2023/05/30 02:41:43;;;;;;;14.87;13.93;;;;;;;17.53;100.00;-18236.06;6244911;23;20282;-65
2023/05/30 02:44:10;;;;;;;15.67;14.67;;;;;;;17.52;100.00;-18235.97;6244915;23;20560;-62
2023/05/30 02:46:37;;;;;;;15.33;13.83;;;;;;;17.54;100.00;-18236.44;6244517;23;20168;-62
2023/05/30 02:49:06;;;;;;;15.93;14.50;;;;;;;17.55;100.00;-18236.69;6245085;23;20599;-61
2023/05/30 02:51:32;;;;;;;15.63;14.20;;;;;;;17.66;100.00;-18239.31;6244453;23;20224;-61
2023/05/30 02:54:01;;;;;;;15.10;13.73;;;;;;;17.67;100.00;-18239.56;6244610;23;20161;-62
2023/05/30 02:56:29;;;;;;;15.57;14.30;;;;;;;17.77;100.00;-18241.94;6244567;23;20157;-61
2023/05/30 02:58:56;;;;;;;15.97;14.60;;;;;;;17.79;100.00;-18242.31;6244640;23;20163;-62
2023/05/30 03:01:23;;;;;;;17.50;13.73;;;;;;;17.70;100.00;-18240.16;6244940;23;20153;-61
2023/05/30 03:03:50;;;;;;;15.90;14.53;;;;;;;17.95;100.00;-18247.91;6244881;23;20528;-61
2023/05/30 03:06:18;;;;;;;15.27;13.80;;;;;;;17.95;100.00;-18247.91;6244988;23;20454;-62
2023/05/30 03:08:45;;;;;;;15.50;14.17;;;;;;;17.91;100.00;-18246.94;6245001;23;20244;-61
2023/05/30 03:11:14;;;;;;;15.83;14.47;;;;;;;18.05;100.00;-18250.41;6244377;23;20176;-62
2023/05/30 03:13:42;;;;;;;15.27;14.17;;;;;;;18.14;100.00;-18252.56;6244409;23;20161;-62
2023/05/30 03:16:08;;;;;;;13.87;13.17;;;;;;;18.17;100.00;-18253.28;6244321;23;20164;-62
2023/05/30 03:18:36;;;;;;;14.30;13.17;;;;;;;18.30;100.00;-18256.25;6244714;23;20164;-62
2023/05/30 03:21:03;;;;;;;14.13;12.87;;;;;;;18.38;100.00;-18258.06;6244687;23;20604;-62
2023/05/30 03:23:30;;;;;;;15.63;14.17;;;;;;;18.40;100.00;-18258.53;6244759;23;20611;-63
2023/05/30 03:25:56;;;;;;;14.23;12.73;;;;;;;18.38;100.00;-18258.06;6244783;23;20488;-61
2023/05/30 03:28:25;;;;;;;14.50;13.43;;;;;;;18.45;100.00;-18259.84;6244758;23;20500;-62
2023/05/30 03:30:55;;;;;;;14.03;12.80;;;;;;;18.43;100.00;-18259.25;6244092;23;20188;-62
2023/05/30 03:33:23;;;;;;;13.27;12.23;;;;;;;18.37;100.00;-18257.94;6244361;23;20188;-62
2023/05/30 03:35:50;;;;;;;14.37;13.03;;;;;;;18.60;100.00;-18263.31;6244569;23;20219;-63
2023/05/30 03:38:17;;;;;;;13.03;12.07;;;;;;;18.68;100.00;-18265.34;6244240;23;20157;-63
2023/05/30 03:40:44;;;;;;;12.73;11.63;;;;;;;19.01;100.00;-18273.00;6244141;23;20157;-62
2023/05/30 03:43:11;;;;;;;13.30;12.03;;;;;;;19.22;100.00;-18277.91;6244022;23;20683;-62
2023/05/30 03:45:40;;;;;;;11.53;10.50;;;;;;;18.99;100.00;-18270.75;6243936;23;20187;-62
2023/05/30 03:48:06;;;;;;;12.10;10.90;;;;;;;19.60;100.00;-13123.22;6244403;23;20553;-62
2023/05/30 03:50:33;;;;;;;12.03;11.27;;;;;;;19.74;100.00;-7954.00;6243866;23;20184;-62
2023/05/30 03:53:00;;;;;;;11.73;10.77;;;;;;;19.80;100.00;-6660.16;6244428;23;20187;-62
2023/05/30 03:55:27;;;;;;;12.13;11.10;;;;;;;19.86;100.00;-5041.84;6244330;23;20165;-63
2023/05/30 03:57:54;;;;;;;11.73;10.97;;;;;;;20.06;100.00;-4070.44;6243509;23;20164;-62
2023/05/30 04:00:21;;;;;;;11.00;10.03;;;;;;;20.22;100.00;-1152.41;6244246;23;20153;-62
2023/05/30 04:02:49;;;;;;;12.97;10.67;;;;;;;20.26;100.00;2093.34;6243832;23;20167;-63
2023/05/30 04:05:16;;;;;;;10.80;10.10;;;;;;;20.46;100.00;4044.72;6244219;23;20588;-62
2023/05/30 04:07:43;;;;;;;10.73;10.07;;;;;;;20.48;100.00;7622.34;6243902;23;20164;-62
2023/05/30 04:10:11;;;;;;;11.03;10.23;;;;;;;20.47;100.00;9575.06;6244141;23;20643;-63
2023/05/30 04:12:38;;;;;;;11.10;10.37;;;;;;;20.62;100.00;11206.66;6243943;23;20175;-63
2023/05/30 04:15:05;;;;;;;12.00;9.60;;;;;;;20.81;100.00;17082.94;6243701;23;20164;-62
2023/05/30 04:17:32;;;;;;;9.83;8.97;;;;;;;20.98;100.00;21009.72;6244533;23;20157;-62
2023/05/30 04:20:00;;;;;;;9.93;9.17;;;;;;;21.09;100.00;30511.34;6243829;23;20169;-63
2023/05/30 04:22:27;;;;;;;10.40;9.40;;;;;;;21.08;100.00;33791.63;6243733;23;20162;-63
2023/05/30 04:24:54;;;;;;;17.97;9.90;;;;;;;21.21;100.00;37742.25;6243767;23;20156;-64
2023/05/30 04:27:21;;;;;;;14.77;9.90;;;;;;;21.12;100.00;33137.84;6244202;23;20160;-63
2023/05/30 04:29:48;;;;;;;15.10;10.00;;;;;;;21.27;100.00;39719.44;6243753;23;20168;-63
2023/05/30 04:32:16;;;;;;;14.50;9.17;;;;;;;21.58;100.00;49298.41;6244464;23;20165;-62
2023/05/30 04:34:43;;;;;;;12.70;8.83;;;;;;;21.57;100.00;49627.63;6244221;23;20602;-63
2023/05/30 04:37:12;;;;;;;10.17;9.30;;;;;;;21.71;100.00;53934.44;6244178;23;20588;-63
2023/05/30 04:39:39;;;;;;;11.70;8.52;;;;;;;21.86;100.00;66204.81;6244157;23;20161;-62
2023/05/30 04:42:07;;;;;;;9.30;8.43;;;;;;;21.89;100.00;62891.16;6243447;23;20203;-62
2023/05/30 04:44:37;;;;;;;12.43;9.50;;;;;;;22.17;100.00;85217.56;6244133;23;20161;-63
2023/05/30 04:47:05;;;;;;;10.27;9.60;;;;;;;22.14;100.00;83544.44;6243988;23;20157;-64
2023/05/30 04:49:32;;;;;;;11.05;8.98;;;;;;;22.35;100.00;103659.47;6243676;23;20161;-67
2023/05/30 04:52:00;;;;;;;9.82;8.68;;;;;;;22.49;100.00;80922.72;6243482;23;20181;-63
2023/05/30 04:54:30;;;;;;;19.30;11.03;;;;;;;22.65;100.00;102032.00;6244157;23;20323;-63
2023/05/30 04:56:57;;;;;;;22.38;10.07;;;;;;;22.83;100.00;131064.91;6243543;23;20184;-63
2023/05/30 04:59:24;;;;;;;14.70;9.75;;;;;;;22.89;100.00;127354.88;6244518;23;20527;-62
2023/05/30 05:01:52;;;;;;;12.57;8.70;;;;;;;23.06;100.00;146270.09;6245004;23;20638;-62
2023/05/30 05:04:19;;;;;;;10.38;9.38;;;;;;;23.14;100.00;151857.66;6244791;23;20157;-63
2023/05/30 05:06:46;;;;;;;14.90;9.15;;;;;;;23.20;100.00;151871.69;6245237;23;20256;-63
2023/05/30 05:09:13;;;;;;;10.30;9.30;;;;;;;23.04;100.00;151832.13;6245687;23;20167;-64
2023/05/30 05:11:41;;;;;;;10.93;8.73;;;;;;;23.52;100.00;151952.13;6245607;23;20184;-63
2023/05/30 05:14:08;;;;;;;17.58;9.70;;;;;;;23.37;100.00;151913.81;6245582;23;20604;-61
2023/05/30 05:16:35;;;;;;;31.25;13.23;;;;;;;23.42;100.00;151926.56;6245156;23;20161;-61
2023/05/30 05:19:02;;;;;;;20.42;10.73;;;;;;;23.63;100.00;151980.22;6245989;23;20251;-62
2023/05/30 05:21:29;;;;;;;19.63;11.38;;;;;;;23.43;100.00;151930.44;6246112;23;20236;-61
2023/05/30 05:23:56;;;;;;;14.65;9.10;;;;;;;23.66;100.00;151989.16;6245677;23;20200;-62
2023/05/30 05:26:23;;;;;;;19.75;9.75;;;;;;;23.84;100.00;152032.56;6245757;23;20618;-61
2023/05/30 05:28:52;;;;;;;12.55;8.50;;;;;;;24.10;100.00;152100.16;6245391;23;20163;-61
2023/05/30 05:31:19;;;;;;;9.65;7.68;;;;;;;23.93;100.00;152056.75;6245214;23;20584;-61
2023/05/30 05:33:46;;;;;;;9.00;8.13;;;;;;;23.87;100.00;152041.47;6245552;23;20163;-63
2023/05/30 05:36:12;;;;;;;13.88;8.23;;;;;;;23.70;100.00;151998.09;6245813;23;20157;-64
2023/05/30 05:38:40;;;;;;;18.77;8.63;;;;;;;23.86;100.00;152038.91;6245803;23;20171;-62
2023/05/30 05:41:07;;;;;;;14.57;9.20;;;;;;;23.95;100.00;152061.91;6245412;23;20153;-63
2023/05/30 05:43:34;;;;;;;10.88;7.82;;;;;;;24.06;100.00;152089.97;6244957;23;20203;-62
2023/05/30 05:46:02;;;;;;;12.07;8.32;;;;;;;24.23;100.00;152132.16;6245749;23;20157;-65
2023/05/30 05:48:29;;;;;;;12.15;8.20;;;;;;;24.48;100.00;152194.75;6245995;23;20157;-65
2023/05/30 05:50:56;;;;;;;9.23;7.90;;;;;;;24.75;100.00;152263.69;6245614;23;20259;-64
2023/05/30 05:53:22;;;;;;;10.82;7.72;;;;;;;24.91;100.00;152304.59;6245698;23;20157;-66
2023/05/30 05:55:50;;;;;;;12.82;8.77;;;;;;;24.93;100.00;152309.72;6245385;23;20168;-64
2023/05/30 05:58:17;;;;;;;13.50;8.10;;;;;;;25.31;100.00;152405.53;6246073;23;20161;-64
2023/05/30 06:00:44;;;;;;;8.70;7.63;;;;;;;25.68;100.00;152497.56;6219154;23;20640;-64
2023/05/30 06:03:12;;;;;;;8.77;7.05;;;;;;;25.66;100.00;152493.78;6245029;23;20196;-63
2023/05/30 06:05:39;;;;;;;10.48;7.90;;;;;;;26.06;100.00;152593.44;6244966;23;20157;-64
2023/05/30 06:08:06;;;;;;;18.40;7.75;;;;;;;26.21;100.00;152631.84;6244963;23;20161;-64
2023/05/30 06:10:33;;;;;;;10.38;7.43;;;;;;;26.40;100.00;152680.41;6244999;23;20199;-63
2023/05/30 06:13:00;;;;;;;13.88;7.63;;;;;;;26.86;100.00;152795.59;6245332;23;20157;-63
2023/05/30 06:15:27;;;;;;;10.02;6.97;;;;;;;27.11;100.00;152859.53;6245218;23;20516;-64
2023/05/30 06:17:54;;;;;;;8.95;8.10;;;;;;;26.91;100.00;152809.63;6245399;23;20575;-64
2023/05/30 06:20:22;;;;;;;10.60;7.63;;;;;;;27.00;100.00;152832.66;6245645;23;20615;-63
2023/05/30 06:22:49;;;;;;;16.45;7.25;;;;;;;26.93;100.00;152813.47;6245285;23;20592;-64
2023/05/30 06:25:17;;;;;;;12.38;7.55;;;;;;;26.97;100.00;152823.72;6218101;23;20180;-63
2023/05/30 06:27:43;;;;;;;18.48;8.38;;;;;;;27.43;100.00;152940.13;6244791;23;20163;-63
2023/05/30 06:30:11;;;;;;;15.70;8.07;;;;;;;27.57;100.00;152977.28;6244910;23;20163;-64
2023/05/30 06:32:38;;;;;;;12.73;7.97;;;;;;;27.45;100.00;152946.53;6243546;23;20188;-64
2023/05/30 06:35:06;;;;;;;14.05;6.78;;;;;;;27.35;100.00;152920.94;6244941;23;20239;-62
2023/05/30 06:37:34;;;;;;;8.13;6.22;;;;;;;27.78;100.00;153029.75;6244441;23;20588;-65
2023/05/30 06:40:01;;;;;;;13.95;7.00;;;;;;;28.28;100.00;153156.50;6244665;23;20240;-64
2023/05/30 06:42:28;;;;;;;14.05;6.90;;;;;;;28.15;100.00;153123.22;6245101;23;20196;-64
2023/05/30 06:44:55;;;;;;;16.20;8.02;;;;;;;29.13;100.00;153370.38;6245033;23;20156;-65
2023/05/30 06:47:22;;;;;;;8.50;6.78;;;;;;;30.04;100.00;153602.38;6245096;23;20161;-65
2023/05/30 06:49:49;;;;;;;6.45;5.80;;;;;;;29.70;100.00;153515.19;6244892;23;20182;-64
2023/05/30 06:52:15;;;;;;;9.85;7.20;;;;;;;30.18;100.00;153636.94;6244916;23;20583;-65
2023/05/30 06:54:44;;;;;;;10.27;6.28;;;;;;;29.49;100.00;153463.91;6217228;23;20168;-65
2023/05/30 06:57:11;;;;;;;7.22;6.45;;;;;;;29.12;100.00;153369.09;6245365;23;20187;-65
2023/05/30 06:59:37;;;;;;;6.68;6.28;;;;;;;29.45;100.00;153452.44;6244428;23;20169;-65
2023/05/30 07:02:05;;;;;;;6.70;5.78;;;;;;;29.01;100.00;153340.94;6245308;23;20208;-64
2023/05/30 07:04:32;;;;;;;6.50;5.85;;;;;;;28.81;100.00;153291.00;6250098;23;20496;-63
2023/05/30 07:06:59;;;;;;;6.03;5.32;;;;;;;29.23;100.00;153397.28;6245012;23;20153;-64
2023/05/30 07:09:26;;;;;;;7.85;7.07;;;;;;;29.16;100.00;153378.03;6245056;23;20471;-64
2023/05/30 07:11:55;;;;;;;6.60;6.30;;;;;;;29.16;100.00;153378.03;6245010;23;20180;-65
2023/05/30 07:14:21;;;;;;;8.07;6.05;;;;;;;29.10;100.00;153364.00;6245457;23;20165;-63
2023/05/30 07:16:48;;;;;;;7.05;6.43;;;;;;;28.91;100.00;153315.31;6245513;23;20674;-63
2023/05/30 07:19:17;;;;;;;6.20;5.75;;;;;;;28.98;100.00;153334.50;6244455;23;20161;-62
2023/05/30 07:21:44;;;;;;;13.82;7.15;;;;;;;28.81;100.00;153291.00;6244502;23;20159;-63
2023/05/30 07:24:11;;;;;;;7.10;6.07;;;;;;;28.81;100.00;153289.72;6244835;23;20485;-65
2023/05/30 07:26:38;;;;;;;9.75;6.55;;;;;;;28.77;100.00;153279.47;6246588;23;20167;-65
2023/05/30 07:29:06;;;;;;;6.55;6.07;;;;;;;28.74;100.00;153271.75;6246541;23;20157;-64
2023/05/30 07:31:33;;;;;;;11.52;6.22;;;;;;;28.75;100.00;153274.34;6244562;23;20178;-64
2023/05/30 07:34:00;;;;;;;5.85;5.55;;;;;;;28.81;100.00;153289.72;6244571;23;20232;-64
2023/05/30 07:36:27;;;;;;;8.73;6.25;;;;;;;28.99;100.00;153335.78;6245751;23;20262;-64
2023/05/30 07:38:54;;;;;;;6.05;5.63;;;;;;;28.88;100.00;153307.63;6245020;23;20491;-64
2023/05/30 07:41:22;;;;;;;6.10;5.55;;;;;;;28.96;100.00;153328.13;6241380;23;20461;-65
2023/05/30 07:43:49;;;;;;;6.30;5.80;;;;;;;28.90;100.00;153314.00;6244728;23;20227;-65
2023/05/30 07:46:17;;;;;;;7.00;6.55;;;;;;;28.67;100.00;153253.81;6218855;23;20236;-64
2023/05/30 07:48:44;;;;;;;7.07;5.82;;;;;;;28.74;100.00;153271.75;6246175;23;20164;-64
2023/05/30 07:51:12;;;;;;;6.07;5.68;;;;;;;29.02;100.00;153343.50;6246637;23;20187;-64
2023/05/30 07:53:39;;;;;;;6.65;5.70;;;;;;;29.03;100.00;153346.03;6246528;23;20512;-64
2023/05/30 07:56:06;;;;;;;6.50;5.85;;;;;;;29.10;100.00;153362.72;6247114;23;20157;-63
2023/05/30 07:58:33;;;;;;;12.20;6.85;;;;;;;28.89;100.00;153310.22;6245950;23;20161;-64
2023/05/30 08:01:00;;;;;;;5.90;5.60;;;;;;;28.74;100.00;153273.03;6245698;23;20161;-64
2023/05/30 08:03:33;;;;;;;11.40;6.40;;;;;;;28.94;100.00;153324.25;6246240;23;20176;-65
2023/05/30 08:06:02;;;;;;;13.73;7.15;;;;;;;29.22;100.00;153393.44;6245629;23;20183;-65
2023/05/30 08:08:28;;;;;;;12.75;6.78;;;;;;;29.53;100.00;153471.63;6245328;23;20679;-64
2023/05/30 08:10:58;;;;;;;5.50;5.30;;;;;;;29.66;100.00;153506.25;6245647;23;20486;-64
2023/05/30 08:13:27;;;;;;;5.78;5.22;;;;;;;30.22;100.00;153648.47;6245439;23;20156;-63
2023/05/30 08:15:54;;;;;;;7.50;5.70;;;;;;;30.24;100.00;153653.63;6245250;23;20168;-64
2023/05/30 08:18:22;;;;;;;5.82;5.53;;;;;;;29.93;100.00;153574.16;6245182;23;20160;-63
2023/05/30 08:20:51;;;;;;;9.75;7.20;;;;;;;29.87;100.00;153558.81;6245298;23;20161;-64
2023/05/30 08:23:20;;;;;;;7.07;6.18;;;;;;;29.75;100.00;153529.25;6244667;23;20157;-62
2023/05/30 08:25:48;;;;;;;6.18;5.57;;;;;;;29.76;100.00;153531.84;6245217;23;20203;-63
2023/05/30 08:28:15;;;;;;;5.95;5.47;;;;;;;28.34;100.00;153171.88;6219246;23;20164;-63
2023/05/30 08:30:48;;;;;;;7.68;5.88;;;;;;;29.53;100.00;153472.94;6245883;23;20156;-62
2023/05/30 08:33:15;;;;;;;6.07;5.60;;;;;;;29.45;100.00;153453.69;6245201;23;20176;-64
2023/05/30 08:35:42;;;;;;;6.18;5.80;;;;;;;29.84;100.00;153551.03;6245672;23;20157;-64
2023/05/30 08:38:11;;;;;;;6.30;5.82;;;;;;;30.02;100.00;153597.25;6247618;23;20161;-66
2023/05/30 08:40:42;;;;;;;5.28;4.88;;;;;;;30.14;98.65;153628.00;6246713;23;20539;-65
2023/05/30 08:43:09;;;;;;;5.25;5.00;;;;;;;29.64;93.76;153501.09;6248733;23;20200;-65
2023/05/30 08:45:36;;;;;;;5.00;4.70;;;;;;;29.57;100.00;153481.88;6248892;23;20236;-65
2023/05/30 08:48:06;;;;;;;5.38;4.90;;;;;;;29.60;100.00;153489.56;6248160;23;20211;-65
2023/05/30 08:50:36;;;;;;;5.20;4.75;;;;;;;29.89;100.00;153563.91;6248134;23;20184;-65
2023/05/30 08:53:08;;;;;;;8.55;4.95;;;;;;;30.17;100.00;153635.66;6249125;23;20180;-64
2023/05/30 08:55:41;;;;;;;6.13;5.50;;;;;;;30.13;100.00;153625.41;6248839;23;20667;-65
2023/05/30 08:58:15;;;;;;;9.07;5.50;;;;;;;30.30;100.00;153667.69;6249099;23;20239;-65
2023/05/30 09:00:43;;;;;;;10.00;4.93;;;;;;;30.16;100.00;153633.13;6250592;23;20160;-65
2023/05/30 09:03:11;;;;;;;5.47;4.97;;;;;;;29.83;100.00;153549.75;6249350;23;20517;-64
2023/05/30 09:05:41;;;;;;;5.00;4.50;;;;;;;29.55;97.77;153476.75;6247530;23;20207;-66
2023/05/30 09:08:09;;;;;;;5.20;4.82;;;;;;;28.86;94.70;153302.50;6248810;23;20195;-64
2023/05/30 09:10:41;;;;;;;5.45;5.07;;;;;;;28.96;98.39;153328.13;6246920;23;20157;-64
2023/05/30 09:13:08;;;;;;;4.43;4.22;;;;;;;28.75;95.85;153275.63;6247149;23;20181;-66
2023/05/30 09:15:35;;;;;;;4.82;4.60;;;;;;;28.63;100.00;153244.84;6247283;23;20192;-64
2023/05/30 09:18:02;;;;;;;5.13;4.68;;;;;;;28.75;100.00;153274.34;6221279;23;20157;-65
2023/05/30 09:20:31;;;;;;;5.32;4.93;;;;;;;28.94;100.00;153323.03;6246591;23;20172;-65
2023/05/30 09:22:58;;;;;;;7.45;5.07;;;;;;;29.21;100.00;153392.16;6246954;23;20157;-65
2023/05/30 09:25:26;;;;;;;5.43;5.18;;;;;;;29.61;100.00;153492.13;6246359;23;20160;-66
2023/05/30 09:27:54;;;;;;;6.88;5.32;;;;;;;29.77;100.00;153533.13;6246636;23;20171;-65
2023/05/30 09:30:21;;;;;;;11.45;5.03;;;;;;;30.09;100.00;153615.16;6219910;23;20238;-65
2023/05/30 09:33:01;;;;;;;12.63;5.25;;;;;;;30.52;100.00;153722.88;6247399;23;20624;-65
2023/05/30 09:35:28;;;;;;;6.15;5.13;;;;;;;30.09;94.97;153615.16;6246386;23;20535;-65
2023/05/30 09:37:55;;;;;;;5.65;5.15;;;;;;;30.10;100.00;153616.44;6246420;23;20153;-65
2023/05/30 09:40:24;;;;;;;8.57;4.90;;;;;;;29.86;98.78;153557.47;6246565;23;20157;-64
2023/05/30 09:42:52;;;;;;;7.13;5.50;;;;;;;29.09;95.33;153361.41;6246577;23;20201;-65
2023/05/30 09:45:23;;;;;;;6.00;4.80;;;;;;;29.56;89.32;153479.31;6247381;23;20157;-65
2023/05/30 09:47:55;;;;;;;11.65;8.23;;;;;;;30.08;98.94;153612.63;6248838;23;20157;-65
2023/05/30 09:50:28;;;;;;;5.13;4.72;;;;;;;29.85;90.25;153554.91;6245310;23;20239;-65
2023/05/30 09:52:56;;;;;;;6.75;4.68;;;;;;;29.17;88.68;153381.91;6245383;23;20203;-65
2023/05/30 09:55:25;;;;;;;5.78;5.30;;;;;;;28.39;98.13;153184.66;6244780;23;20180;-65
2023/05/30 09:57:53;;;;;;;4.85;4.60;;;;;;;28.38;100.00;153182.13;6244850;23;20161;-65
2023/05/30 10:00:25;;;;;;;25.13;9.50;;;;;;;28.42;100.00;153191.06;6244996;23;20167;-64
2023/05/30 10:02:53;;;;;;;5.72;5.32;;;;;;;28.33;100.00;153169.31;6245062;23;20160;-65
2023/05/30 10:05:21;;;;;;;5.25;4.78;;;;;;;28.26;100.00;153150.13;6245244;23;20608;-63
2023/05/30 10:07:50;;;;;;;5.20;4.80;;;;;;;28.33;100.00;153169.31;6244231;23;20157;-64
2023/05/30 10:10:18;;;;;;;4.63;4.32;;;;;;;28.13;100.00;153119.34;6245172;23;20161;-65
2023/05/30 10:12:50;;;;;;;5.30;4.88;;;;;;;27.80;100.00;153034.84;6245326;23;20511;-65
2023/05/30 10:15:18;;;;;;;4.93;4.72;;;;;;;27.70;100.00;153010.56;6245043;23;20236;-65
2023/05/30 10:17:50;;;;;;;6.28;4.90;;;;;;;27.92;100.00;153065.56;6245332;23;20163;-65
2023/05/30 10:20:18;;;;;;;4.93;4.72;;;;;;;28.02;100.00;153089.88;6244890;23;20163;-64
2023/05/30 10:22:47;;;;;;;8.35;4.68;;;;;;;28.37;100.00;153179.56;6245318;23;20257;-65
2023/05/30 10:25:19;;;;;;;5.07;4.78;;;;;;;28.34;100.00;153171.88;6245481;23;20168;-65
2023/05/30 10:27:50;;;;;;;5.10;4.85;;;;;;;28.21;100.00;153137.31;6245197;23;20164;-65
2023/05/30 10:30:22;;;;;;;8.95;4.90;;;;;;;28.83;93.33;153294.81;6244442;23;20477;-65
2023/05/30 10:32:58;;;;;;;5.72;5.10;;;;;;;29.03;93.25;153346.03;6245373;23;20189;-64
2023/05/30 10:35:26;;;;;;;5.63;5.22;;;;;;;29.15;92.09;153376.81;6243480;23;20161;-64
2023/05/30 10:37:53;;;;;;;5.38;4.90;;;;;;;28.93;99.20;153320.44;6246008;23;20164;-65
2023/05/30 10:40:36;;;;;;;7.68;5.30;;;;;;;28.81;96.54;153289.72;6218354;23;20161;-65
2023/05/30 10:43:12;;;;;;;4.68;4.38;;;;;;;28.80;89.83;153288.44;6244509;23;20685;-66
2023/05/30 10:45:48;;;;;;;6.18;4.00;;;;;;;28.94;80.84;153324.25;6244917;23;20204;-65
2023/05/30 10:48:26;;;;;;;4.38;4.28;;;;;;;29.13;90.53;153371.66;6245110;23;20183;-66
2023/05/30 10:50:58;;;;;;;6.43;4.60;;;;;;;29.24;94.88;153398.59;6218259;23;20161;-65
2023/05/30 10:53:25;;;;;;;11.70;5.38;;;;;;;29.26;98.63;153404.97;6244563;23;20593;-65
2023/05/30 10:55:52;;;;;;;5.43;4.95;;;;;;;28.69;86.64;153258.91;6244331;23;20161;-64
2023/05/30 10:58:39;;;;;;;5.00;4.32;;;;;;;28.44;94.93;153196.16;6244861;23;20164;-66
2023/05/30 11:01:26;;;;;;;6.07;5.30;;;;;;;28.55;94.30;153225.66;6244970;23;20168;-65
2023/05/30 11:03:59;;;;;;;4.93;4.50;;;;;;;28.31;91.98;153164.16;6244890;23;20480;-64
2023/05/30 11:06:28;;;;;;;6.07;5.72;;;;;;;27.49;100.00;152956.81;6244400;23;20247;-65
2023/05/30 11:09:04;;;;;;;6.93;6.47;;;;;;;26.43;100.00;152686.84;6244405;23;20157;-62
2023/05/30 11:11:33;;;;;;;8.55;7.93;;;;;;;25.71;100.00;152506.56;6244021;23;20161;-64
2023/05/30 11:14:06;;;;;;;10.38;7.68;;;;;;;25.41;100.00;152429.84;6244604;23;20665;-63
2023/05/30 11:16:48;;;;;;;8.52;8.02;;;;;;;25.39;100.00;152424.69;6243722;23;20179;-64
2023/05/30 11:19:18;;;;;;;15.35;8.05;;;;;;;25.27;100.00;152394.03;6244330;23;20164;-63